sensor_id;sensor_type;location;lat;lon;timestamp;P1;durP1;ratioP1;P2;durP2;ratioP2
28545;SDS011;15749;49.606;8.738;2023-07-22T00:01:10;1.30;;;1.20;;
28545;SDS011;15749;49.606;8.738;2023-07-22T00:03:39;1.50;;;1.40;;
28545;SDS011;15749;49.606;8.738;2023-07-22T00:06:09;1.37;;;1.27;;
28545;SDS011;15749;49.606;8.738;2023-07-22T00:08:39;1.20;;;1.10;;
28545;SDS011;15749;49.606;8.738;2023-07-22T00:11:08;1.63;;;1.30;;
28545;SDS011;15749;49.606;8.738;2023-07-22T00:13:37;1.53;;;1.37;;
28545;SDS011;15749;49.606;8.738;2023-07-22T00:16:06;1.10;;;1.10;;
28545;SDS011;15749;49.606;8.738;2023-07-22T00:18:37;1.30;;;1.20;;
28545;SDS011;15749;49.606;8.738;2023-07-22T00:21:06;1.73;;;1.20;;
28545;SDS011;15749;49.606;8.738;2023-07-22T00:23:36;1.37;;;1.10;;
28545;SDS011;15749;49.606;8.738;2023-07-22T00:26:05;1.00;;;1.00;;
28545;SDS011;15749;49.606;8.738;2023-07-22T00:28:36;1.80;;;1.27;;
28545;SDS011;15749;49.606;8.738;2023-07-22T00:31:06;1.10;;;1.00;;
28545;SDS011;15749;49.606;8.738;2023-07-22T00:33:37;1.20;;;1.10;;
28545;SDS011;15749;49.606;8.738;2023-07-22T00:36:06;1.20;;;1.10;;
28545;SDS011;15749;49.606;8.738;2023-07-22T00:38:35;1.40;;;1.20;;
28545;SDS011;15749;49.606;8.738;2023-07-22T00:41:05;1.20;;;1.10;;
28545;SDS011;15749;49.606;8.738;2023-07-22T00:43:35;1.37;;;1.27;;
28545;SDS011;15749;49.606;8.738;2023-07-22T00:46:07;1.50;;;1.10;;
28545;SDS011;15749;49.606;8.738;2023-07-22T00:48:38;1.70;;;1.30;;
28545;SDS011;15749;49.606;8.738;2023-07-22T00:51:07;1.30;;;1.20;;
28545;SDS011;15749;49.606;8.738;2023-07-22T00:53:36;1.40;;;1.30;;
28545;SDS011;15749;49.606;8.738;2023-07-22T00:56:05;1.53;;;1.43;;
28545;SDS011;15749;49.606;8.738;2023-07-22T00:58:35;1.20;;;1.10;;
28545;SDS011;15749;49.606;8.738;2023-07-22T01:01:04;1.40;;;1.20;;
28545;SDS011;15749;49.606;8.738;2023-07-22T01:03:34;1.50;;;1.20;;
28545;SDS011;15749;49.606;8.738;2023-07-22T01:06:04;1.30;;;1.20;;
28545;SDS011;15749;49.606;8.738;2023-07-22T01:08:36;1.60;;;1.40;;
28545;SDS011;15749;49.606;8.738;2023-07-22T01:11:05;1.53;;;1.43;;
28545;SDS011;15749;49.606;8.738;2023-07-22T01:13:34;1.47;;;1.37;;
28545;SDS011;15749;49.606;8.738;2023-07-22T01:16:03;1.10;;;1.10;;
28545;SDS011;15749;49.606;8.738;2023-07-22T01:18:33;1.10;;;1.07;;
28545;SDS011;15749;49.606;8.738;2023-07-22T01:21:05;1.60;;;1.47;;
28545;SDS011;15749;49.606;8.738;2023-07-22T01:23:36;1.97;;;1.20;;
28545;SDS011;15749;49.606;8.738;2023-07-22T01:26:06;1.80;;;1.40;;
28545;SDS011;15749;49.606;8.738;2023-07-22T01:28:35;1.50;;;1.40;;
28545;SDS011;15749;49.606;8.738;2023-07-22T01:31:05;1.30;;;1.20;;
28545;SDS011;15749;49.606;8.738;2023-07-22T01:33:34;1.30;;;1.20;;
28545;SDS011;15749;49.606;8.738;2023-07-22T01:36:05;1.60;;;1.50;;
28545;SDS011;15749;49.606;8.738;2023-07-22T01:38:34;1.70;;;1.30;;
28545;SDS011;15749;49.606;8.738;2023-07-22T01:41:05;1.67;;;1.27;;
28545;SDS011;15749;49.606;8.738;2023-07-22T01:43:34;2.90;;;1.67;;
28545;SDS011;15749;49.606;8.738;2023-07-22T01:46:03;2.20;;;2.00;;
28545;SDS011;15749;49.606;8.738;2023-07-22T01:48:32;2.30;;;2.20;;
28545;SDS011;15749;49.606;8.738;2023-07-22T01:51:01;2.50;;;2.30;;
28545;SDS011;15749;49.606;8.738;2023-07-22T01:53:32;2.10;;;2.00;;
28545;SDS011;15749;49.606;8.738;2023-07-22T01:56:03;3.50;;;1.87;;
28545;SDS011;15749;49.606;8.738;2023-07-22T01:58:33;3.17;;;1.97;;
28545;SDS011;15749;49.606;8.738;2023-07-22T02:01:02;2.10;;;2.00;;
28545;SDS011;15749;49.606;8.738;2023-07-22T02:03:31;2.50;;;2.30;;
28545;SDS011;15749;49.606;8.738;2023-07-22T02:06:01;2.70;;;2.30;;
28545;SDS011;15749;49.606;8.738;2023-07-22T08:09:36;2.80;;;2.20;;
28545;SDS011;15749;49.606;8.738;2023-07-22T08:12:06;4.20;;;2.33;;
28545;SDS011;15749;49.606;8.738;2023-07-22T08:14:36;4.57;;;2.20;;
28545;SDS011;15749;49.606;8.738;2023-07-22T08:17:08;2.87;;;2.17;;
28545;SDS011;15749;49.606;8.738;2023-07-22T08:19:37;2.43;;;2.23;;
28545;SDS011;15749;49.606;8.738;2023-07-22T08:22:07;2.50;;;2.30;;
28545;SDS011;15749;49.606;8.738;2023-07-22T08:24:38;2.50;;;2.30;;
28545;SDS011;15749;49.606;8.738;2023-07-22T08:27:08;2.50;;;2.30;;
28545;SDS011;15749;49.606;8.738;2023-07-22T08:29:38;2.60;;;2.40;;
28545;SDS011;15749;49.606;8.738;2023-07-22T08:32:09;2.43;;;2.23;;
28545;SDS011;15749;49.606;8.738;2023-07-22T08:34:40;2.20;;;2.00;;
28545;SDS011;15749;49.606;8.738;2023-07-22T08:37:11;2.53;;;2.00;;
28545;SDS011;15749;49.606;8.738;2023-07-22T08:39:42;2.30;;;2.20;;
28545;SDS011;15749;49.606;8.738;2023-07-22T08:42:12;2.90;;;2.20;;
28545;SDS011;15749;49.606;8.738;2023-07-22T08:44:44;2.80;;;2.20;;
28545;SDS011;15749;49.606;8.738;2023-07-22T08:47:17;2.57;;;2.00;;
28545;SDS011;15749;49.606;8.738;2023-07-22T08:49:52;1.77;;;1.67;;
28545;SDS011;15749;49.606;8.738;2023-07-22T08:52:23;2.50;;;1.87;;
28545;SDS011;15749;49.606;8.738;2023-07-22T08:54:54;2.00;;;1.90;;
28545;SDS011;15749;49.606;8.738;2023-07-22T08:57:24;1.90;;;1.80;;
28545;SDS011;15749;49.606;8.738;2023-07-22T08:59:57;3.20;;;2.07;;
28545;SDS011;15749;49.606;8.738;2023-07-22T09:02:27;2.50;;;2.30;;
28545;SDS011;15749;49.606;8.738;2023-07-22T09:04:58;2.80;;;2.60;;
28545;SDS011;15749;49.606;8.738;2023-07-22T09:07:28;2.77;;;2.00;;
28545;SDS011;15749;49.606;8.738;2023-07-22T09:10:07;4.00;;;2.10;;
28545;SDS011;15749;49.606;8.738;2023-07-22T09:12:41;1.90;;;1.80;;
28545;SDS011;15749;49.606;8.738;2023-07-22T09:15:12;4.17;;;1.93;;
28545;SDS011;15749;49.606;8.738;2023-07-22T09:17:44;2.00;;;1.60;;
28545;SDS011;15749;49.606;8.738;2023-07-22T09:20:21;2.10;;;2.00;;
28545;SDS011;15749;49.606;8.738;2023-07-22T09:22:51;2.00;;;1.90;;
28545;SDS011;15749;49.606;8.738;2023-07-22T09:25:43;2.00;;;1.90;;
28545;SDS011;15749;49.606;8.738;2023-07-22T09:28:13;1.80;;;1.70;;
28545;SDS011;15749;49.606;8.738;2023-07-22T09:30:43;1.57;;;1.43;;
28545;SDS011;15749;49.606;8.738;2023-07-22T09:33:19;4.13;;;2.00;;
28545;SDS011;15749;49.606;8.738;2023-07-22T09:35:53;1.57;;;1.47;;
28545;SDS011;15749;49.606;8.738;2023-07-22T09:38:24;3.57;;;1.70;;
28545;SDS011;15749;49.606;8.738;2023-07-22T09:40:57;2.30;;;1.87;;
28545;SDS011;15749;49.606;8.738;2023-07-22T09:43:27;3.97;;;1.90;;
28545;SDS011;15749;49.606;8.738;2023-07-22T09:46:05;1.77;;;1.67;;
28545;SDS011;15749;49.606;8.738;2023-07-22T09:48:55;1.70;;;1.60;;
28545;SDS011;15749;49.606;8.738;2023-07-22T09:51:25;2.40;;;1.73;;
28545;SDS011;15749;49.606;8.738;2023-07-22T10:09:02;1.87;;;1.30;;
28545;SDS011;15749;49.606;8.738;2023-07-22T10:11:35;1.73;;;1.60;;
28545;SDS011;15749;49.606;8.738;2023-07-22T10:14:04;1.70;;;1.60;;
28545;SDS011;15749;49.606;8.738;2023-07-22T10:16:34;1.77;;;1.60;;
28545;SDS011;15749;49.606;8.738;2023-07-22T10:19:04;2.40;;;2.20;;
28545;SDS011;15749;49.606;8.738;2023-07-22T10:21:34;2.13;;;2.00;;
28545;SDS011;15749;49.606;8.738;2023-07-22T10:24:06;2.00;;;1.90;;
28545;SDS011;15749;49.606;8.738;2023-07-22T10:26:38;3.03;;;2.00;;
28545;SDS011;15749;49.606;8.738;2023-07-22T10:29:14;2.05;;;1.80;;
28545;SDS011;15749;49.606;8.738;2023-07-22T10:31:46;1.63;;;1.53;;
28545;SDS011;15749;49.606;8.738;2023-07-22T10:34:23;1.67;;;1.58;;
28545;SDS011;15749;49.606;8.738;2023-07-22T10:37:03;4.28;;;2.10;;
28545;SDS011;15749;49.606;8.738;2023-07-22T10:39:35;2.83;;;1.63;;
28545;SDS011;15749;49.606;8.738;2023-07-22T10:42:05;3.65;;;2.45;;
28545;SDS011;15749;49.606;8.738;2023-07-22T10:44:35;2.40;;;2.20;;
28545;SDS011;15749;49.606;8.738;2023-07-22T10:47:10;4.78;;;2.22;;
28545;SDS011;15749;49.606;8.738;2023-07-22T10:49:43;2.88;;;2.20;;
28545;SDS011;15749;49.606;8.738;2023-07-22T10:55:30;2.65;;;1.90;;
28545;SDS011;15749;49.606;8.738;2023-07-22T10:58:03;1.77;;;1.67;;
28545;SDS011;15749;49.606;8.738;2023-07-22T11:00:34;2.58;;;1.95;;
28545;SDS011;15749;49.606;8.738;2023-07-22T11:03:13;1.70;;;1.60;;
28545;SDS011;15749;49.606;8.738;2023-07-22T11:05:57;1.80;;;1.70;;
28545;SDS011;15749;49.606;8.738;2023-07-22T11:08:37;2.25;;;2.05;;
28545;SDS011;15749;49.606;8.738;2023-07-22T11:11:16;2.90;;;1.65;;
28545;SDS011;15749;49.606;8.738;2023-07-22T11:14:17;1.90;;;1.80;;
28545;SDS011;15749;49.606;8.738;2023-07-22T11:17:16;2.00;;;1.80;;
28545;SDS011;15749;49.606;8.738;2023-07-22T11:19:49;2.10;;;1.90;;
28545;SDS011;15749;49.606;8.738;2023-07-22T11:22:19;1.70;;;1.60;;
28545;SDS011;15749;49.606;8.738;2023-07-22T11:25:00;2.10;;;1.90;;
28545;SDS011;15749;49.606;8.738;2023-07-22T11:27:35;2.95;;;2.00;;
28545;SDS011;15749;49.606;8.738;2023-07-22T11:30:05;2.00;;;1.70;;
28545;SDS011;15749;49.606;8.738;2023-07-22T11:32:42;1.65;;;1.55;;
28545;SDS011;15749;49.606;8.738;2023-07-22T11:35:30;1.48;;;1.38;;
28545;SDS011;15749;49.606;8.738;2023-07-22T11:38:03;1.95;;;1.77;;
28545;SDS011;15749;49.606;8.738;2023-07-22T11:40:33;2.30;;;1.67;;
28545;SDS011;15749;49.606;8.738;2023-07-22T11:43:05;1.73;;;1.63;;
28545;SDS011;15749;49.606;8.738;2023-07-22T11:45:37;1.50;;;1.40;;
28545;SDS011;15749;49.606;8.738;2023-07-22T11:48:09;1.60;;;1.50;;
28545;SDS011;15749;49.606;8.738;2023-07-22T11:50:41;1.63;;;1.50;;
28545;SDS011;15749;49.606;8.738;2023-07-22T11:53:12;1.60;;;1.50;;
28545;SDS011;15749;49.606;8.738;2023-07-22T11:55:46;1.83;;;1.73;;
28545;SDS011;15749;49.606;8.738;2023-07-22T11:58:34;1.70;;;1.60;;
28545;SDS011;15749;49.606;8.738;2023-07-22T12:01:10;2.45;;;2.00;;
28545;SDS011;15749;49.606;8.738;2023-07-22T12:03:41;1.73;;;1.63;;
28545;SDS011;15749;49.606;8.738;2023-07-22T12:06:11;1.67;;;1.58;;
28545;SDS011;15749;49.606;8.738;2023-07-22T12:09:12;1.38;;;1.20;;
28545;SDS011;15749;49.606;8.738;2023-07-22T12:15:11;1.77;;;1.55;;
28545;SDS011;15749;49.606;8.738;2023-07-22T12:17:45;1.50;;;1.40;;
28545;SDS011;15749;49.606;8.738;2023-07-22T12:20:18;1.80;;;1.50;;
28545;SDS011;15749;49.606;8.738;2023-07-22T12:22:56;1.58;;;1.48;;
28545;SDS011;15749;49.606;8.738;2023-07-22T12:25:27;1.60;;;1.50;;
28545;SDS011;15749;49.606;8.738;2023-07-22T12:28:35;1.85;;;1.75;;
28545;SDS011;15749;49.606;8.738;2023-07-22T12:31:07;1.50;;;1.40;;
28545;SDS011;15749;49.606;8.738;2023-07-22T12:33:37;1.17;;;1.17;;
28545;SDS011;15749;49.606;8.738;2023-07-22T12:36:13;1.52;;;1.42;;
28545;SDS011;15749;49.606;8.738;2023-07-22T12:38:47;1.60;;;1.50;;
28545;SDS011;15749;49.606;8.738;2023-07-22T12:41:57;1.45;;;1.35;;
28545;SDS011;15749;49.606;8.738;2023-07-22T12:45:14;1.42;;;1.33;;
28545;SDS011;15749;49.606;8.738;2023-07-22T12:47:48;1.70;;;1.60;;
28545;SDS011;15749;49.606;8.738;2023-07-22T12:50:20;2.53;;;1.92;;
28545;SDS011;15749;49.606;8.738;2023-07-22T12:52:50;2.67;;;2.10;;
28545;SDS011;15749;49.606;8.738;2023-07-22T12:55:36;1.77;;;1.67;;
28545;SDS011;15749;49.606;8.738;2023-07-22T12:58:10;2.28;;;1.70;;
28545;SDS011;15749;49.606;8.738;2023-07-22T13:00:40;2.08;;;1.60;;
28545;SDS011;15749;49.606;8.738;2023-07-22T13:03:27;1.42;;;1.08;;
28545;SDS011;15749;49.606;8.738;2023-07-22T13:06:08;1.30;;;1.20;;
28545;SDS011;15749;49.606;8.738;2023-07-22T13:08:42;1.88;;;1.40;;
28545;SDS011;15749;49.606;8.738;2023-07-22T13:11:28;1.55;;;1.15;;
28545;SDS011;15749;49.606;8.738;2023-07-22T13:14:02;1.20;;;1.10;;
28545;SDS011;15749;49.606;8.738;2023-07-22T13:16:33;1.67;;;1.25;;
28545;SDS011;15749;49.606;8.738;2023-07-22T13:19:04;1.23;;;1.13;;
28545;SDS011;15749;49.606;8.738;2023-07-22T13:21:42;1.42;;;1.20;;
28545;SDS011;15749;49.606;8.738;2023-07-22T13:24:11;2.17;;;1.40;;
28545;SDS011;15749;49.606;8.738;2023-07-22T13:26:41;1.40;;;1.30;;
28545;SDS011;15749;49.606;8.738;2023-07-22T13:29:14;1.48;;;1.38;;
28545;SDS011;15749;49.606;8.738;2023-07-22T13:32:00;2.42;;;1.40;;
28545;SDS011;15749;49.606;8.738;2023-07-22T13:34:54;1.67;;;1.58;;
28545;SDS011;15749;49.606;8.738;2023-07-22T13:37:25;2.45;;;1.30;;
28545;SDS011;15749;49.606;8.738;2023-07-22T13:40:07;1.88;;;1.55;;
28545;SDS011;15749;49.606;8.738;2023-07-22T13:45:38;5.65;;;1.63;;
28545;SDS011;15749;49.606;8.738;2023-07-22T13:48:08;5.53;;;1.92;;
28545;SDS011;15749;49.606;8.738;2023-07-22T13:50:43;2.28;;;1.98;;
28545;SDS011;15749;49.606;8.738;2023-07-22T13:53:12;2.10;;;1.90;;
28545;SDS011;15749;49.606;8.738;2023-07-22T13:55:45;5.30;;;1.98;;
28545;SDS011;15749;49.606;8.738;2023-07-22T13:58:19;2.60;;;2.00;;
28545;SDS011;15749;49.606;8.738;2023-07-22T14:00:49;2.28;;;2.08;;
28545;SDS011;15749;49.606;8.738;2023-07-22T14:03:19;1.73;;;1.50;;
28545;SDS011;15749;49.606;8.738;2023-07-22T14:05:50;2.20;;;2.00;;
28545;SDS011;15749;49.606;8.738;2023-07-22T14:08:19;2.20;;;2.00;;
28545;SDS011;15749;49.606;8.738;2023-07-22T14:10:48;2.47;;;2.00;;
28545;SDS011;15749;49.606;8.738;2023-07-22T14:13:18;5.30;;;2.03;;
28545;SDS011;15749;49.606;8.738;2023-07-22T14:15:47;4.00;;;1.70;;
28545;SDS011;15749;49.606;8.738;2023-07-22T14:18:16;2.85;;;1.70;;
28545;SDS011;15749;49.606;8.738;2023-07-22T14:20:47;5.05;;;1.85;;
28545;SDS011;15749;49.606;8.738;2023-07-22T14:23:18;2.88;;;1.70;;
28545;SDS011;15749;49.606;8.738;2023-07-22T14:25:47;3.95;;;1.80;;
28545;SDS011;15749;49.606;8.738;2023-07-22T14:28:16;2.22;;;1.67;;
28545;SDS011;15749;49.606;8.738;2023-07-22T14:30:46;2.05;;;1.65;;
28545;SDS011;15749;49.606;8.738;2023-07-22T14:33:16;1.98;;;1.77;;
28545;SDS011;15749;49.606;8.738;2023-07-22T14:35:45;2.10;;;1.63;;
28545;SDS011;15749;49.606;8.738;2023-07-22T14:38:15;2.63;;;1.17;;
28545;SDS011;15749;49.606;8.738;2023-07-22T14:40:45;1.65;;;1.45;;
28545;SDS011;15749;49.606;8.738;2023-07-22T14:43:15;1.48;;;1.38;;
28545;SDS011;15749;49.606;8.738;2023-07-22T14:45:49;1.75;;;1.60;;
28545;SDS011;15749;49.606;8.738;2023-07-22T14:48:18;4.18;;;2.08;;
28545;SDS011;15749;49.606;8.738;2023-07-22T14:50:48;2.20;;;1.60;;
28545;SDS011;15749;49.606;8.738;2023-07-22T14:53:17;2.67;;;1.80;;
28545;SDS011;15749;49.606;8.738;2023-07-22T14:55:48;2.63;;;1.90;;
28545;SDS011;15749;49.606;8.738;2023-07-22T14:58:19;1.90;;;1.80;;
28545;SDS011;15749;49.606;8.738;2023-07-22T15:00:49;4.03;;;2.00;;
28545;SDS011;15749;49.606;8.738;2023-07-22T15:03:19;2.65;;;1.88;;
28545;SDS011;15749;49.606;8.738;2023-07-22T15:05:48;2.00;;;1.80;;
28545;SDS011;15749;49.606;8.738;2023-07-22T15:08:18;1.67;;;1.58;;
28545;SDS011;15749;49.606;8.738;2023-07-22T15:10:48;2.30;;;2.10;;
28545;SDS011;15749;49.606;8.738;2023-07-22T15:13:18;2.53;;;1.98;;
28545;SDS011;15749;49.606;8.738;2023-07-22T15:15:48;2.03;;;1.80;;
28545;SDS011;15749;49.606;8.738;2023-07-22T15:18:17;2.30;;;1.92;;
28545;SDS011;15749;49.606;8.738;2023-07-22T15:20:47;2.08;;;1.60;;
28545;SDS011;15749;49.606;8.738;2023-07-22T15:23:16;1.60;;;1.50;;
28545;SDS011;15749;49.606;8.738;2023-07-22T15:25:50;1.80;;;1.70;;
28545;SDS011;15749;49.606;8.738;2023-07-22T15:28:20;1.45;;;1.35;;
28545;SDS011;15749;49.606;8.738;2023-07-22T15:30:49;1.48;;;1.38;;
28545;SDS011;15749;49.606;8.738;2023-07-22T15:33:19;2.00;;;1.83;;
28545;SDS011;15749;49.606;8.738;2023-07-22T15:35:49;2.97;;;1.80;;
28545;SDS011;15749;49.606;8.738;2023-07-22T15:38:19;1.67;;;1.58;;
28545;SDS011;15749;49.606;8.738;2023-07-22T15:40:51;1.80;;;1.48;;
28545;SDS011;15749;49.606;8.738;2023-07-22T15:43:21;2.05;;;1.63;;
28545;SDS011;15749;49.606;8.738;2023-07-22T15:45:50;2.30;;;2.10;;
28545;SDS011;15749;49.606;8.738;2023-07-22T15:48:20;4.18;;;2.35;;
28545;SDS011;15749;49.606;8.738;2023-07-22T15:50:50;3.50;;;2.30;;
28545;SDS011;15749;49.606;8.738;2023-07-22T15:53:19;2.88;;;2.30;;
28545;SDS011;15749;49.606;8.738;2023-07-22T15:55:50;2.40;;;2.15;;
28545;SDS011;15749;49.606;8.738;2023-07-22T15:58:20;3.78;;;2.20;;
28545;SDS011;15749;49.606;8.738;2023-07-22T16:00:49;2.03;;;1.92;;
28545;SDS011;15749;49.606;8.738;2023-07-22T16:03:19;3.83;;;2.13;;
28545;SDS011;15749;49.606;8.738;2023-07-22T16:05:48;2.40;;;1.95;;
28545;SDS011;15749;49.606;8.738;2023-07-22T16:08:18;3.20;;;2.05;;
28545;SDS011;15749;49.606;8.738;2023-07-22T16:10:47;3.92;;;2.13;;
28545;SDS011;15749;49.606;8.738;2023-07-22T16:13:18;3.95;;;2.20;;
28545;SDS011;15749;49.606;8.738;2023-07-22T16:15:47;2.15;;;1.95;;
28545;SDS011;15749;49.606;8.738;2023-07-22T16:18:17;2.95;;;2.10;;
28545;SDS011;15749;49.606;8.738;2023-07-22T16:20:46;2.90;;;2.30;;
28545;SDS011;15749;49.606;8.738;2023-07-22T16:23:15;2.80;;;2.50;;
28545;SDS011;15749;49.606;8.738;2023-07-22T16:25:45;2.72;;;2.42;;
28545;SDS011;15749;49.606;8.738;2023-07-22T16:28:14;2.88;;;2.33;;
28545;SDS011;15749;49.606;8.738;2023-07-22T16:30:45;4.55;;;2.05;;
28545;SDS011;15749;49.606;8.738;2023-07-22T16:33:15;3.92;;;2.55;;
28545;SDS011;15749;49.606;8.738;2023-07-22T16:35:45;2.25;;;2.10;;
28545;SDS011;15749;49.606;8.738;2023-07-22T16:38:15;2.90;;;2.60;;
28545;SDS011;15749;49.606;8.738;2023-07-22T16:40:44;3.45;;;2.40;;
28545;SDS011;15749;49.606;8.738;2023-07-22T16:43:16;2.53;;;2.33;;
28545;SDS011;15749;49.606;8.738;2023-07-22T16:45:46;2.30;;;2.10;;
28545;SDS011;15749;49.606;8.738;2023-07-22T16:48:18;2.30;;;2.10;;
28545;SDS011;15749;49.606;8.738;2023-07-22T16:50:48;3.15;;;2.78;;
28545;SDS011;15749;49.606;8.738;2023-07-22T16:53:17;4.22;;;2.97;;
28545;SDS011;15749;49.606;8.738;2023-07-22T16:55:47;3.40;;;2.75;;
28545;SDS011;15749;49.606;8.738;2023-07-22T16:58:16;2.53;;;2.33;;
28545;SDS011;15749;49.606;8.738;2023-07-22T17:00:47;2.50;;;2.20;;
28545;SDS011;15749;49.606;8.738;2023-07-22T17:03:16;4.00;;;1.95;;
28545;SDS011;15749;49.606;8.738;2023-07-22T17:05:46;2.92;;;2.42;;
28545;SDS011;15749;49.606;8.738;2023-07-22T17:08:18;2.22;;;2.03;;
28545;SDS011;15749;49.606;8.738;2023-07-22T17:10:48;2.40;;;2.20;;
28545;SDS011;15749;49.606;8.738;2023-07-22T17:13:17;3.63;;;2.10;;
28545;SDS011;15749;49.606;8.738;2023-07-22T17:15:48;3.30;;;2.40;;
28545;SDS011;15749;49.606;8.738;2023-07-22T17:18:17;2.40;;;2.20;;
28545;SDS011;15749;49.606;8.738;2023-07-22T17:20:47;2.45;;;2.22;;
28545;SDS011;15749;49.606;8.738;2023-07-22T17:23:22;2.30;;;2.10;;
28545;SDS011;15749;49.606;8.738;2023-07-22T17:25:51;4.57;;;2.10;;
28545;SDS011;15749;49.606;8.738;2023-07-22T17:28:21;4.18;;;2.65;;
28545;SDS011;15749;49.606;8.738;2023-07-22T17:30:52;2.50;;;2.25;;
28545;SDS011;15749;49.606;8.738;2023-07-22T17:33:26;2.63;;;2.42;;
28545;SDS011;15749;49.606;8.738;2023-07-22T17:35:58;3.05;;;2.55;;
28545;SDS011;15749;49.606;8.738;2023-07-22T17:38:27;3.47;;;2.20;;
28545;SDS011;15749;49.606;8.738;2023-07-22T17:40:59;3.10;;;2.80;;
28545;SDS011;15749;49.606;8.738;2023-07-22T17:43:29;2.33;;;2.13;;
28545;SDS011;15749;49.606;8.738;2023-07-22T17:46:00;2.10;;;1.90;;
28545;SDS011;15749;49.606;8.738;2023-07-22T17:48:30;4.60;;;2.35;;
28545;SDS011;15749;49.606;8.738;2023-07-22T17:51:00;2.25;;;1.90;;
28545;SDS011;15749;49.606;8.738;2023-07-22T17:53:29;2.38;;;2.17;;
28545;SDS011;15749;49.606;8.738;2023-07-22T17:55:59;2.40;;;2.20;;
28545;SDS011;15749;49.606;8.738;2023-07-22T17:58:28;2.70;;;2.25;;
28545;SDS011;15749;49.606;8.738;2023-07-22T18:00:59;2.17;;;1.98;;
28545;SDS011;15749;49.606;8.738;2023-07-22T18:03:30;2.85;;;2.10;;
28545;SDS011;15749;49.606;8.738;2023-07-22T18:05:59;4.63;;;2.17;;
28545;SDS011;15749;49.606;8.738;2023-07-22T18:08:29;2.40;;;2.20;;
28545;SDS011;15749;49.606;8.738;2023-07-22T18:10:58;4.57;;;2.47;;
28545;SDS011;15749;49.606;8.738;2023-07-22T18:13:28;3.22;;;2.10;;
28545;SDS011;15749;49.606;8.738;2023-07-22T18:15:57;2.13;;;1.95;;
28545;SDS011;15749;49.606;8.738;2023-07-22T18:18:28;3.90;;;2.17;;
28545;SDS011;15749;49.606;8.738;2023-07-22T18:20:57;2.45;;;2.25;;
28545;SDS011;15749;49.606;8.738;2023-07-22T18:23:28;5.30;;;2.20;;
28545;SDS011;15749;49.606;8.738;2023-07-22T18:25:58;2.40;;;2.20;;
28545;SDS011;15749;49.606;8.738;2023-07-22T18:28:27;3.72;;;2.20;;
28545;SDS011;15749;49.606;8.738;2023-07-22T18:30:57;2.10;;;2.00;;
28545;SDS011;15749;49.606;8.738;2023-07-22T18:33:27;2.10;;;2.00;;
28545;SDS011;15749;49.606;8.738;2023-07-22T18:35:57;1.95;;;1.85;;
28545;SDS011;15749;49.606;8.738;2023-07-22T18:38:28;2.15;;;1.95;;
28545;SDS011;15749;49.606;8.738;2023-07-22T18:40:57;4.05;;;2.20;;
28545;SDS011;15749;49.606;8.738;2023-07-22T18:43:30;4.80;;;2.15;;
28545;SDS011;15749;49.606;8.738;2023-07-22T18:45:59;2.20;;;2.00;;
28545;SDS011;15749;49.606;8.738;2023-07-22T18:48:33;2.63;;;1.90;;
28545;SDS011;15749;49.606;8.738;2023-07-22T18:51:04;4.05;;;2.20;;
28545;SDS011;15749;49.606;8.738;2023-07-22T18:53:33;2.33;;;2.00;;
28545;SDS011;15749;49.606;8.738;2023-07-22T18:56:04;2.08;;;1.95;;
28545;SDS011;15749;49.606;8.738;2023-07-22T18:58:43;2.17;;;1.98;;
28545;SDS011;15749;49.606;8.738;2023-07-22T19:01:13;2.30;;;2.00;;
28545;SDS011;15749;49.606;8.738;2023-07-22T19:03:43;4.00;;;1.95;;
28545;SDS011;15749;49.606;8.738;2023-07-22T19:06:13;3.45;;;1.98;;
28545;SDS011;15749;49.606;8.738;2023-07-22T19:08:42;1.83;;;1.73;;
28545;SDS011;15749;49.606;8.738;2023-07-22T19:11:13;3.53;;;1.70;;
28545;SDS011;15749;49.606;8.738;2023-07-22T19:13:46;2.30;;;2.10;;
28545;SDS011;15749;49.606;8.738;2023-07-22T19:16:18;2.15;;;1.70;;
28545;SDS011;15749;49.606;8.738;2023-07-22T19:18:49;2.05;;;1.92;;
28545;SDS011;15749;49.606;8.738;2023-07-22T19:21:18;2.20;;;2.00;;
28545;SDS011;15749;49.606;8.738;2023-07-22T19:23:47;1.50;;;1.40;;
28545;SDS011;15749;49.606;8.738;2023-07-22T19:26:17;1.67;;;1.58;;
28545;SDS011;15749;49.606;8.738;2023-07-22T19:28:46;1.52;;;1.42;;
28545;SDS011;15749;49.606;8.738;2023-07-22T19:31:15;1.73;;;1.63;;
28545;SDS011;15749;49.606;8.738;2023-07-22T19:33:45;1.85;;;1.75;;
28545;SDS011;15749;49.606;8.738;2023-07-22T19:36:15;1.90;;;1.80;;
28545;SDS011;15749;49.606;8.738;2023-07-22T19:38:45;1.50;;;1.40;;
28545;SDS011;15749;49.606;8.738;2023-07-22T19:41:14;1.63;;;1.50;;
28545;SDS011;15749;49.606;8.738;2023-07-22T19:43:46;2.72;;;1.85;;
28545;SDS011;15749;49.606;8.738;2023-07-22T19:46:15;2.38;;;2.10;;
28545;SDS011;15749;49.606;8.738;2023-07-22T19:48:46;2.10;;;1.90;;
28545;SDS011;15749;49.606;8.738;2023-07-22T19:51:17;1.63;;;1.52;;
28545;SDS011;15749;49.606;8.738;2023-07-22T19:53:46;2.20;;;1.67;;
28545;SDS011;15749;49.606;8.738;2023-07-22T19:56:16;1.90;;;1.80;;
28545;SDS011;15749;49.606;8.738;2023-07-22T19:58:45;2.50;;;1.83;;
28545;SDS011;15749;49.606;8.738;2023-07-22T20:01:14;1.83;;;1.70;;
28545;SDS011;15749;49.606;8.738;2023-07-22T20:03:44;2.15;;;1.80;;
28545;SDS011;15749;49.606;8.738;2023-07-22T20:06:14;2.22;;;2.03;;
28545;SDS011;15749;49.606;8.738;2023-07-22T20:08:45;2.25;;;1.90;;
28545;SDS011;15749;49.606;8.738;2023-07-22T20:11:19;3.55;;;1.88;;
28545;SDS011;15749;49.606;8.738;2023-07-22T20:13:48;1.70;;;1.60;;
28545;SDS011;15749;49.606;8.738;2023-07-22T20:16:18;2.00;;;1.90;;
28545;SDS011;15749;49.606;8.738;2023-07-22T20:18:47;2.28;;;2.05;;
28545;SDS011;15749;49.606;8.738;2023-07-22T20:21:16;2.10;;;1.70;;
28545;SDS011;15749;49.606;8.738;2023-07-22T20:23:47;2.88;;;2.30;;
28545;SDS011;15749;49.606;8.738;2023-07-22T20:26:20;2.45;;;2.03;;
28545;SDS011;15749;49.606;8.738;2023-07-22T20:28:49;1.88;;;1.77;;
28545;SDS011;15749;49.606;8.738;2023-07-22T20:31:18;1.92;;;1.83;;
28545;SDS011;15749;49.606;8.738;2023-07-22T20:33:47;2.65;;;1.92;;
28545;SDS011;15749;49.606;8.738;2023-07-22T20:36:16;1.80;;;1.70;;
28545;SDS011;15749;49.606;8.738;2023-07-22T20:38:47;1.85;;;1.73;;
28545;SDS011;15749;49.606;8.738;2023-07-22T20:41:16;2.20;;;2.00;;
28545;SDS011;15749;49.606;8.738;2023-07-22T20:43:45;2.80;;;1.95;;
28545;SDS011;15749;49.606;8.738;2023-07-22T20:46:14;2.05;;;1.70;;
28545;SDS011;15749;49.606;8.738;2023-07-22T20:48:43;3.85;;;1.90;;
28545;SDS011;15749;49.606;8.738;2023-07-22T20:51:12;2.13;;;1.65;;
28545;SDS011;15749;49.606;8.738;2023-07-22T20:53:44;2.10;;;1.90;;
28545;SDS011;15749;49.606;8.738;2023-07-22T20:56:14;2.20;;;2.00;;
28545;SDS011;15749;49.606;8.738;2023-07-22T20:58:45;2.05;;;1.85;;
28545;SDS011;15749;49.606;8.738;2023-07-22T21:01:14;1.92;;;1.83;;
28545;SDS011;15749;49.606;8.738;2023-07-22T21:03:43;2.40;;;2.20;;
28545;SDS011;15749;49.606;8.738;2023-07-22T21:06:12;2.20;;;2.00;;
28545;SDS011;15749;49.606;8.738;2023-07-22T21:08:43;2.85;;;1.98;;
28545;SDS011;15749;49.606;8.738;2023-07-22T21:11:14;1.90;;;1.80;;
28545;SDS011;15749;49.606;8.738;2023-07-22T21:13:43;2.20;;;2.00;;
28545;SDS011;15749;49.606;8.738;2023-07-22T21:16:12;1.90;;;1.80;;
28545;SDS011;15749;49.606;8.738;2023-07-22T21:18:41;4.80;;;2.28;;
28545;SDS011;15749;49.606;8.738;2023-07-22T21:21:12;2.13;;;1.90;;
28545;SDS011;15749;49.606;8.738;2023-07-22T21:23:42;1.85;;;1.70;;
28545;SDS011;15749;49.606;8.738;2023-07-22T21:26:11;3.95;;;1.92;;
28545;SDS011;15749;49.606;8.738;2023-07-22T21:28:42;1.67;;;1.58;;
28545;SDS011;15749;49.606;8.738;2023-07-22T21:31:11;2.25;;;1.83;;
28545;SDS011;15749;49.606;8.738;2023-07-22T21:33:40;2.17;;;1.83;;
28545;SDS011;15749;49.606;8.738;2023-07-22T21:36:09;2.33;;;1.75;;
28545;SDS011;15749;49.606;8.738;2023-07-22T21:38:38;1.90;;;1.70;;
28545;SDS011;15749;49.606;8.738;2023-07-22T21:41:09;2.40;;;2.20;;